Terminal Aerodrome Forecast
Issued by NWS

Home | Current Version | Previous Version | Text Only | Print | Product List | Glossary On
Versions: 1 2 3 4 5 6 7 8 9 10 11 12 13 14 15 16 17 18 19
000
FTUS46 KSEW 200500
TAFPAE
TAF
KPAE 200520Z 2006/2106 15012KT P6SM BKN060 OVC100
     FM200800 15012G22KT P6SM -RA OVC040
     FM201600 15015G25KT P6SM -RA OVC020
     FM202000 17018G26KT 2SM -RA BR OVC015=

USA.gov is the U.S. government's official web portal to all federal, state and local government web resources and services.